Weather at Iringa Airport

Public forecast

Using degrees Celsius for public forecast. Weather courtesy of forecast.io.

Current aviation weather report (METAR) for Iringa Airport

2024/02/23 04:00 (retrieved 60 minutes ago)

HTIR 230400Z 00000KT 9999 SCT020 BKN080 19/18 Q1017

Closest aviation forecast (TAF) to Iringa Airport

Forecast is more than 12 hours old.

Closest forecast is Kasama Airport, 313.7 nm (581.1 km) WSW.

2024/02/22 12:00 (retrieved 17 hours ago)

TAF FLKS 221000Z 2212/2318 VRB05KT 9999 FEW035CB SCT040 PROB30 TEMPO 2212/2214 8000 -TSRA BECMG 2216/2218 VRB03KT 9999 FEW///CB BECMG 2307/2309 07005KT BKN020TCU